Time;durP1;ratioP1;P1;durP2;ratioP2;P2;SDS_P1;SDS_P2;PMS_P1;PMS_P2;Temp;Humidity;BMP_temperature;BMP_pressure;BME280_temperature;BME280_humidity;BME280_pressure;Samples;Min_cycle;Max_cycle;Signal;HPM_P1;HPM_P2
2022/03/28 00:02:20;;;;;;;37.85;22.00;;;11.90;62.30;;;;;;5033541;28;20050;-74
2022/03/28 00:04:47;;;;;;;50.33;22.65;;;11.50;62.80;;;;;;5033633;28;20038;-75
2022/03/28 00:07:15;;;;;;;38.58;22.63;;;11.30;63.10;;;;;;4999003;28;20485;-75
2022/03/28 00:09:42;;;;;;;39.78;22.60;;;11.50;63.50;;;;;;5033362;28;20041;-75
2022/03/28 00:12:10;;;;;;;35.58;22.17;;;11.70;63.60;;;;;;5033548;28;20053;-73
2022/03/28 00:14:37;;;;;;;39.47;22.90;;;11.70;63.20;;;;;;5033436;28;20044;-73
2022/03/28 00:17:05;;;;;;;41.25;21.48;;;11.80;63.30;;;;;;5033379;28;20385;-76
2022/03/28 00:19:32;;;;;;;37.10;21.48;;;11.70;63.30;;;;;;5032757;28;20054;-75
2022/03/28 00:22:00;;;;;;;41.08;23.13;;;11.70;63.50;;;;;;5032775;28;20703;-74
2022/03/28 00:24:27;;;;;;;33.97;21.90;;;11.70;63.30;;;;;;5032792;28;20095;-75
2022/03/28 00:26:55;;;;;;;35.88;21.70;;;11.80;63.30;;;;;;5032859;28;20051;-74
2022/03/28 00:29:22;;;;;;;38.38;21.77;;;11.80;62.70;;;;;;5032703;28;20051;-74
2022/03/28 00:31:50;;;;;;;39.65;20.75;;;11.70;61.90;;;;;;5032571;28;20068;-73
2022/03/28 00:34:21;;;;;;;37.58;21.55;;;11.50;62.30;;;;;;5032527;28;20041;-74
2022/03/28 00:36:52;;;;;;;37.60;20.63;;;11.60;62.20;;;;;;5032361;28;20120;-74
2022/03/28 00:39:20;;;;;;;32.70;21.00;;;11.70;63.30;;;;;;5032903;28;20041;-75
2022/03/28 00:41:49;;;;;;;36.72;19.83;;;11.40;63.10;;;;;;5032333;28;20047;-74
2022/03/28 00:44:17;;;;;;;30.98;19.35;;;11.50;63.10;;;;;;5032150;28;20413;-73
2022/03/28 00:46:45;;;;;;;37.33;21.05;;;11.60;62.60;;;;;;5032778;28;20046;-73
2022/03/28 00:49:13;;;;;;;35.10;20.33;;;11.80;62.40;;;;;;5032831;28;20041;-73
2022/03/28 00:51:40;;;;;;;41.03;20.75;;;11.80;62.40;;;;;;5032938;28;20424;-73
2022/03/28 00:54:08;;;;;;;34.97;20.10;;;11.50;62.80;;;;;;5032869;28;20416;-73
2022/03/28 00:56:40;;;;;;;31.75;20.10;;;11.70;63.60;;;;;;5032760;28;20051;-74
2022/03/28 00:59:08;;;;;;;35.47;21.45;;;11.70;63.90;;;;;;5032459;28;20037;-75
2022/03/28 01:01:35;;;;;;;32.40;20.95;;;11.50;64.40;;;;;;5032511;28;20037;-75
2022/03/28 01:04:06;;;;;;;34.45;20.90;;;11.50;65.30;;;;;;5032652;28;20073;-73
2022/03/28 01:06:36;;;;;;;38.40;21.20;;;11.50;65.70;;;;;;5032869;28;20500;-74
2022/03/28 01:09:04;;;;;;;34.58;21.65;;;11.30;65.70;;;;;;5014993;28;20072;-75
2022/03/28 01:11:34;;;;;;;36.22;20.70;;;11.30;65.50;;;;;;5032463;28;20041;-73
2022/03/28 01:14:01;;;;;;;34.58;21.02;;;11.50;64.40;;;;;;5032561;28;20121;-73
2022/03/28 01:16:30;;;;;;;45.58;21.55;;;11.60;64.60;;;;;;5032333;28;20156;-75
2022/03/28 01:18:57;;;;;;;32.83;20.90;;;11.60;65.80;;;;;;5031240;28;20041;-73
2022/03/28 01:21:24;;;;;;;36.80;21.17;;;11.30;68.60;;;;;;5031877;28;20045;-74
2022/03/28 01:23:52;;;;;;;35.05;21.90;;;11.20;69.80;;;;;;5031847;28;20042;-74
2022/03/28 01:26:19;;;;;;;36.80;22.15;;;11.00;70.20;;;;;;5031638;28;20053;-73
2022/03/28 01:28:46;;;;;;;35.55;21.73;;;11.10;70.70;;;;;;5031718;28;20116;-72
2022/03/28 01:31:13;;;;;;;48.85;23.42;;;11.00;69.50;;;;;;5031743;28;20449;-74
2022/03/28 01:33:41;;;;;;;42.42;24.70;;;11.00;69.30;;;;;;5031565;28;20034;-74
2022/03/28 01:36:08;;;;;;;33.63;20.25;;;11.00;70.00;;;;;;5031769;28;20046;-73
2022/03/28 01:38:35;;;;;;;35.35;21.15;;;11.10;69.20;;;;;;5031591;28;20043;-73
2022/03/28 01:41:03;;;;;;;36.35;20.95;;;10.80;69.10;;;;;;5031584;28;20069;-72
2022/03/28 01:43:30;;;;;;;34.13;21.77;;;10.90;69.60;;;;;;5031545;28;20405;-75
2022/03/28 01:45:57;;;;;;;41.30;23.70;;;11.00;70.40;;;;;;5031521;28;20045;-73
2022/03/28 01:48:24;;;;;;;38.33;23.52;;;11.00;70.50;;;;;;5031938;28;20045;-74
2022/03/28 01:50:52;;;;;;;34.65;22.92;;;10.90;70.60;;;;;;5032231;28;20037;-74
2022/03/28 01:53:19;;;;;;;36.47;21.00;;;10.60;71.40;;;;;;5032297;28;20397;-74
2022/03/28 01:55:46;;;;;;;37.20;21.60;;;10.80;71.40;;;;;;5031895;28;20037;-73
2022/03/28 01:58:13;;;;;;;37.25;22.48;;;10.90;71.50;;;;;;5014927;28;20056;-73
2022/03/28 02:00:41;;;;;;;36.80;22.52;;;10.90;71.60;;;;;;5031905;28;20041;-72
2022/03/28 02:03:09;;;;;;;35.50;21.42;;;10.90;72.30;;;;;;5031597;28;20454;-74
2022/03/28 02:05:36;;;;;;;36.20;20.75;;;10.90;71.10;;;;;;5031418;28;20041;-73
2022/03/28 02:08:04;;;;;;;41.65;22.73;;;11.10;71.50;;;;;;5031369;28;20234;-73
2022/03/28 02:10:31;;;;;;;37.65;21.25;;;11.20;71.40;;;;;;5031292;28;20507;-74
2022/03/28 02:12:58;;;;;;;36.33;22.58;;;11.30;71.10;;;;;;5031285;28;20041;-71
2022/03/28 02:15:25;;;;;;;33.80;22.17;;;11.20;71.70;;;;;;5031296;28;20041;-73
2022/03/28 02:17:53;;;;;;;35.63;22.05;;;11.10;72.90;;;;;;5031468;28;20045;-74
2022/03/28 02:20:21;;;;;;;39.47;23.15;;;11.10;73.50;;;;;;5031430;28;20045;-73
2022/03/28 02:22:48;;;;;;;40.92;23.38;;;11.10;74.90;;;;;;5013270;28;20528;-72
2022/03/28 02:25:17;;;;;;;38.25;24.15;;;11.00;77.10;;;;;;5031037;28;20485;-74
2022/03/28 02:27:44;;;;;;;46.63;24.27;;;10.80;79.40;;;;;;5031099;28;20505;-73
2022/03/28 02:30:14;;;;;;;49.28;25.65;;;10.70;81.70;;;;;;5014092;28;20240;-73
2022/03/28 02:32:42;;;;;;;42.20;25.25;;;10.30;85.60;;;;;;5034626;28;20045;-73
2022/03/28 02:35:11;;;;;;;42.83;24.92;;;10.10;87.30;;;;;;5034672;28;20033;-73
2022/03/28 02:37:39;;;;;;;41.25;24.92;;;10.10;90.10;;;;;;5034676;28;20083;-72
2022/03/28 02:40:08;;;;;;;43.00;24.25;;;10.10;90.20;;;;;;5034535;28;20049;-74
2022/03/28 02:42:36;;;;;;;46.80;23.48;;;10.20;87.80;;;;;;5034512;28;20049;-73
2022/03/28 02:45:03;;;;;;;37.15;22.67;;;10.30;83.70;;;;;;5034530;28;20051;-74
2022/03/28 02:47:31;;;;;;;39.25;23.70;;;10.20;82.70;;;;;;5034518;28;20046;-74
2022/03/28 02:49:59;;;;;;;43.05;24.90;;;10.30;82.90;;;;;;5034353;28;20037;-74
2022/03/28 02:52:27;;;;;;;38.05;22.45;;;10.20;81.60;;;;;;5016712;28;20047;-74
2022/03/28 02:54:54;;;;;;;40.35;22.60;;;10.00;81.60;;;;;;5034192;28;20116;-73
2022/03/28 02:57:22;;;;;;;34.65;21.35;;;9.70;83.20;;;;;;5034263;28;20045;-73
2022/03/28 02:59:49;;;;;;;36.28;22.05;;;9.80;84.80;;;;;;5016613;28;20455;-73
2022/03/28 03:02:17;;;;;;;31.17;19.45;;;9.70;85.80;;;;;;5034252;28;20091;-73
2022/03/28 03:04:44;;;;;;;35.53;20.05;;;9.70;86.50;;;;;;5034194;28;20120;-73
2022/03/28 03:07:12;;;;;;;39.85;20.77;;;9.80;86.40;;;;;;5016767;28;20046;-73
2022/03/28 03:09:39;;;;;;;34.53;20.45;;;9.80;86.10;;;;;;5033882;28;20042;-74
2022/03/28 03:12:07;;;;;;;34.80;20.60;;;9.70;87.30;;;;;;5016570;28;20433;-73
2022/03/28 03:14:35;;;;;;;31.25;19.65;;;9.70;90.40;;;;;;5016609;28;20124;-72
2022/03/28 03:17:02;;;;;;;35.53;20.70;;;9.30;91.20;;;;;;5016568;28;20049;-74
2022/03/28 03:19:30;;;;;;;31.75;18.35;;;9.30;92.80;;;;;;5016471;28;20057;-73
2022/03/28 03:21:57;;;;;;;32.83;18.25;;;9.60;92.20;;;;;;5033677;28;20413;-76
2022/03/28 03:24:25;;;;;;;36.97;19.55;;;9.30;92.10;;;;;;5033658;28;20390;-74
2022/03/28 03:26:52;;;;;;;37.13;19.77;;;9.30;93.30;;;;;;5033775;28;20046;-74
2022/03/28 03:29:19;;;;;;;33.30;19.60;;;9.50;93.00;;;;;;5033871;28;20425;-74
2022/03/28 03:31:47;;;;;;;34.33;19.30;;;9.60;92.10;;;;;;5033617;28;20033;-73
2022/03/28 03:34:14;;;;;;;32.13;19.40;;;9.50;92.20;;;;;;5033759;28;20045;-73
2022/03/28 03:36:41;;;;;;;31.88;18.67;;;9.50;92.10;;;;;;5033909;28;20409;-73
2022/03/28 03:39:09;;;;;;;40.40;20.30;;;9.50;92.20;;;;;;5033534;28;20038;-74
2022/03/28 03:41:36;;;;;;;36.42;19.20;;;9.70;92.10;;;;;;5033522;28;20048;-74
2022/03/28 03:44:04;;;;;;;28.45;18.50;;;9.70;92.00;;;;;;5015700;28;20501;-74
2022/03/28 03:46:32;;;;;;;30.40;18.20;;;9.60;91.40;;;;;;5033606;28;20116;-72
2022/03/28 03:49:05;;;;;;;32.72;18.02;;;9.40;91.40;;;;;;5033675;28;20050;-74
2022/03/28 03:51:33;;;;;;;29.23;17.88;;;9.30;92.00;;;;;;5033568;28;20034;-75
2022/03/28 03:54:00;;;;;;;30.60;17.85;;;9.40;91.90;;;;;;5034233;28;20038;-73
2022/03/28 03:56:28;;;;;;;30.92;18.50;;;9.10;93.00;;;;;;5033765;28;20045;-73
2022/03/28 03:58:58;;;;;;;30.30;19.30;;;8.40;95.60;;;;;;5033558;28;20041;-72
2022/03/28 04:01:28;;;;;;;35.25;18.88;;;8.10;97.60;;;;;;5033585;28;20041;-75
2022/03/28 04:03:56;;;;;;;30.67;18.42;;;8.10;98.50;;;;;;5032962;28;20046;-75
2022/03/28 04:06:23;;;;;;;33.17;18.17;;;8.20;97.50;;;;;;5032862;28;20037;-73
2022/03/28 04:08:50;;;;;;;32.53;18.33;;;8.40;97.50;;;;;;5032848;28;20041;-74
2022/03/28 04:11:18;;;;;;;31.77;17.27;;;8.90;96.30;;;;;;5033028;28;20481;-74
2022/03/28 04:13:46;;;;;;;27.83;17.08;;;9.30;94.90;;;;;;5032592;28;20049;-74
2022/03/28 04:16:13;;;;;;;32.75;18.88;;;9.60;93.60;;;;;;4999603;28;20413;-73
2022/03/28 04:18:41;;;;;;;34.50;18.63;;;9.60;93.60;;;;;;5032787;28;20064;-74
2022/03/28 04:21:08;;;;;;;35.33;18.52;;;9.60;92.90;;;;;;5032690;28;20402;-76
2022/03/28 04:23:35;;;;;;;32.25;18.52;;;9.50;91.90;;;;;;5032786;28;20124;-74
2022/03/28 04:26:03;;;;;;;30.67;18.55;;;9.40;93.60;;;;;;5032691;28;20037;-74
2022/03/28 04:28:31;;;;;;;34.65;20.08;;;9.60;94.00;;;;;;5032619;28;20041;-73
2022/03/28 04:30:58;;;;;;;35.38;19.98;;;9.80;94.10;;;;;;5032827;28;20481;-74
2022/03/28 04:33:26;;;;;;;39.40;22.92;;;9.90;93.90;;;;;;5032593;28;20042;-74
2022/03/28 04:35:53;;;;;;;41.65;23.73;;;9.80;93.70;;;;;;5032353;28;20038;-74
2022/03/28 04:38:21;;;;;;;33.97;20.05;;;9.80;94.10;;;;;;5032497;28;20574;-74
2022/03/28 04:40:48;;;;;;;39.80;20.17;;;9.50;94.80;;;;;;5032352;28;20450;-73
2022/03/28 04:43:16;;;;;;;40.28;22.80;;;9.60;95.20;;;;;;5032189;28;20047;-72
2022/03/28 04:45:43;;;;;;;41.10;23.13;;;9.70;95.40;;;;;;5032212;28;20052;-72
2022/03/28 04:48:11;;;;;;;35.95;21.38;;;9.40;96.20;;;;;;5032362;28;20041;-73
2022/03/28 04:50:38;;;;;;;33.45;20.45;;;9.40;95.90;;;;;;5032074;28;20117;-72
2022/03/28 04:53:06;;;;;;;33.67;20.73;;;9.60;95.30;;;;;;5031780;28;20493;-73
2022/03/28 04:55:34;;;;;;;36.88;20.88;;;9.50;95.30;;;;;;5032156;28;20041;-74
2022/03/28 04:58:01;;;;;;;35.45;18.77;;;9.50;95.20;;;;;;5031882;28;20497;-74
2022/03/28 05:00:28;;;;;;;31.58;19.13;;;9.70;93.80;;;;;;5032108;28;20396;-73
2022/03/28 05:02:57;;;;;;;32.95;17.25;;;9.80;92.70;;;;;;5032167;28;20073;-73
2022/03/28 05:05:25;;;;;;;30.60;17.40;;;9.80;92.10;;;;;;5031747;28;20050;-74
2022/03/28 05:07:52;;;;;;;32.72;16.77;;;9.40;92.10;;;;;;5031912;28;20040;-74
2022/03/28 05:10:19;;;;;;;30.85;18.58;;;9.00;93.30;;;;;;5032055;28;20049;-75
2022/03/28 05:12:46;;;;;;;30.95;17.60;;;8.90;94.20;;;;;;5014054;28;20073;-74
2022/03/28 05:15:14;;;;;;;36.00;19.25;;;8.90;94.70;;;;;;5031273;28;20037;-76
2022/03/28 05:17:41;;;;;;;32.90;19.15;;;9.00;95.30;;;;;;5031405;28;20045;-74
2022/03/28 05:20:09;;;;;;;31.50;18.88;;;9.00;95.10;;;;;;5031125;28;20041;-74
2022/03/28 05:22:38;;;;;;;33.15;18.55;;;8.90;95.40;;;;;;5031214;28;20455;-73
2022/03/28 05:25:07;;;;;;;27.92;18.05;;;8.90;95.60;;;;;;5030948;28;20142;-71
2022/03/28 05:27:45;;;;;;;27.05;17.27;;;9.00;95.60;;;;;;5030861;28;20033;-72
2022/03/28 05:30:14;;;;;;;36.20;18.98;;;9.20;95.40;;;;;;5022885;28;20405;-74
2022/03/28 05:32:42;;;;;;;31.38;17.10;;;9.20;94.80;;;;;;5031407;28;20046;-75
2022/03/28 05:35:10;;;;;;;28.50;18.02;;;9.30;94.30;;;;;;5013775;28;20509;-73
2022/03/28 05:37:39;;;;;;;32.53;18.45;;;9.30;94.50;;;;;;4998187;28;20046;-74
2022/03/28 05:40:10;;;;;;;30.60;17.02;;;9.50;94.20;;;;;;5031141;28;20051;-75
2022/03/28 05:42:37;;;;;;;32.55;18.25;;;9.60;93.70;;;;;;5013660;28;20133;-75
2022/03/28 05:45:05;;;;;;;34.63;17.88;;;9.60;93.80;;;;;;5031373;28;20041;-75
2022/03/28 05:47:32;;;;;;;35.97;18.75;;;9.60;93.70;;;;;;5031469;28;20508;-73
2022/03/28 05:50:00;;;;;;;31.65;19.17;;;10.00;92.80;;;;;;5014132;28;20049;-74
2022/03/28 05:52:28;;;;;;;30.98;18.27;;;10.40;91.90;;;;;;5031455;28;20045;-74
2022/03/28 05:54:55;;;;;;;40.83;17.58;;;10.30;90.90;;;;;;5031300;28;20046;-75
2022/03/28 05:57:23;;;;;;;28.90;18.67;;;10.30;91.20;;;;;;5031437;28;20053;-75
2022/03/28 05:59:51;;;;;;;31.20;17.33;;;10.30;90.80;;;;;;5031401;28;20067;-76
2022/03/28 06:02:18;;;;;;;30.10;17.58;;;10.50;90.50;;;;;;5031347;28;20513;-74
2022/03/28 06:04:47;;;;;;;31.95;17.55;;;10.80;89.70;;;;;;5031378;28;20072;-73
2022/03/28 06:07:14;;;;;;;38.67;19.90;;;10.90;89.80;;;;;;5017767;28;20128;-73
2022/03/28 06:09:41;;;;;;;43.55;20.88;;;11.00;90.70;;;;;;5034871;28;20116;-74
2022/03/28 06:12:10;;;;;;;35.20;21.65;;;11.10;91.90;;;;;;5035046;28;20056;-74
2022/03/28 06:14:37;;;;;;;40.33;25.42;;;11.00;93.80;;;;;;5034895;28;20045;-73
2022/03/28 06:17:04;;;;;;;60.63;28.25;;;10.90;95.10;;;;;;5034842;28;20381;-74
2022/03/28 06:19:31;;;;;;;49.85;28.35;;;11.00;95.80;;;;;;5034768;28;20053;-73
2022/03/28 06:21:59;;;;;;;49.28;28.77;;;11.00;96.90;;;;;;5034568;28;20041;-76
2022/03/28 06:24:26;;;;;;;40.78;26.35;;;10.80;97.30;;;;;;5034521;28;20448;-74
2022/03/28 06:26:53;;;;;;;51.50;27.25;;;10.70;97.00;;;;;;5034675;28;20045;-74
2022/03/28 06:29:21;;;;;;;45.75;26.90;;;10.70;97.20;;;;;;5034633;28;20053;-74
2022/03/28 06:31:48;;;;;;;44.65;25.85;;;10.80;97.50;;;;;;5034612;28;20045;-75
2022/03/28 06:34:16;;;;;;;55.38;27.10;;;10.70;97.60;;;;;;5034362;28;20053;-73
2022/03/28 06:36:44;;;;;;;44.33;27.75;;;10.80;97.60;;;;;;5034534;28;20063;-74
2022/03/28 06:39:12;;;;;;;45.83;25.80;;;10.70;98.10;;;;;;5034529;28;20045;-76
2022/03/28 06:41:40;;;;;;;42.80;25.77;;;10.70;96.70;;;;;;5034553;28;20049;-74
2022/03/28 06:44:13;;;;;;;39.00;24.88;;;10.50;96.70;;;;;;5034340;28;20462;-73
2022/03/28 06:46:43;;;;;;;40.22;23.85;;;10.50;97.20;;;;;;5034534;28;20041;-73
2022/03/28 06:49:11;;;;;;;40.03;23.43;;;10.60;96.80;;;;;;5016911;28;20050;-73
2022/03/28 06:51:38;;;;;;;42.78;22.17;;;10.80;95.90;;;;;;5034082;28;20278;-75
2022/03/28 06:54:07;;;;;;;43.40;23.48;;;10.90;94.80;;;;;;5034237;28;20053;-73
2022/03/28 06:56:35;;;;;;;35.53;20.77;;;10.80;95.40;;;;;;5016363;28;20038;-75
2022/03/28 06:59:03;;;;;;;39.38;21.40;;;10.80;95.60;;;;;;5033886;28;20042;-74
2022/03/28 07:01:30;;;;;;;39.05;21.75;;;10.70;95.70;;;;;;5033963;28;20034;-74
2022/03/28 07:03:58;;;;;;;35.40;21.45;;;10.70;95.80;;;;;;5033832;28;20052;-75
2022/03/28 07:06:26;;;;;;;36.97;22.30;;;10.70;96.20;;;;;;5000404;28;20071;-74
2022/03/28 07:08:54;;;;;;;33.75;21.02;;;10.80;95.40;;;;;;5033723;28;20045;-74
2022/03/28 07:11:21;;;;;;;33.70;20.75;;;11.00;94.90;;;;;;5033948;28;20038;-74
2022/03/28 07:13:48;;;;;;;31.55;21.50;;;11.20;94.10;;;;;;5015962;28;20425;-75
2022/03/28 07:16:15;;;;;;;35.10;21.00;;;11.30;92.70;;;;;;5033556;28;20037;-75
2022/03/28 07:18:43;;;;;;;36.90;21.73;;;11.40;92.00;;;;;;5033983;28;20041;-74
2022/03/28 07:21:10;;;;;;;42.95;22.73;;;11.30;92.00;;;;;;5033687;28;20532;-75
2022/03/28 07:23:38;;;;;;;37.67;20.88;;;11.20;92.90;;;;;;5033632;28;20404;-74
2022/03/28 07:26:07;;;;;;;41.58;22.98;;;11.40;93.20;;;;;;5033531;28;20041;-73
2022/03/28 07:28:38;;;;;;;40.42;22.75;;;11.50;92.50;;;;;;5033374;28;20464;-73
2022/03/28 07:31:09;;;;;;;46.00;21.83;;;11.40;92.50;;;;;;5033531;28;20073;-75
2022/03/28 07:33:41;;;;;;;37.15;22.67;;;11.60;91.40;;;;;;5033268;28;20049;-73
2022/03/28 07:36:10;;;;;;;38.60;22.40;;;11.60;91.30;;;;;;5033471;28;20051;-74
2022/03/28 07:38:38;;;;;;;38.92;22.85;;;11.60;91.90;;;;;;5033213;28;20045;-74
2022/03/28 07:41:05;;;;;;;35.90;23.08;;;11.60;92.80;;;;;;5033013;28;20045;-74
2022/03/28 07:43:33;;;;;;;47.85;23.85;;;11.50;93.80;;;;;;5033294;28;20068;-76
2022/03/28 07:46:00;;;;;;;46.22;24.17;;;11.50;94.20;;;;;;5033289;28;20127;-74
2022/03/28 07:48:27;;;;;;;41.08;22.98;;;11.70;94.50;;;;;;5033107;28;20038;-74
2022/03/28 07:50:55;;;;;;;40.28;23.50;;;11.60;94.60;;;;;;5033183;28;20030;-75
2022/03/28 07:53:23;;;;;;;43.70;24.00;;;11.70;94.40;;;;;;5033209;28;20127;-74
2022/03/28 07:55:50;;;;;;;35.38;22.65;;;11.70;94.30;;;;;;5032912;28;20045;-74
2022/03/28 07:58:17;;;;;;;46.70;23.17;;;11.70;94.20;;;;;;5015263;28;20477;-74
2022/03/28 08:00:45;;;;;;;38.67;21.60;;;11.80;93.90;;;;;;5032965;28;20559;-77
2022/03/28 08:03:12;;;;;;;40.28;23.20;;;11.90;93.70;;;;;;5032882;28;20489;-74
2022/03/28 08:05:39;;;;;;;41.15;22.88;;;11.90;93.30;;;;;;5032963;28;20535;-73
2022/03/28 08:08:07;;;;;;;40.35;23.85;;;12.20;92.60;;;;;;5032952;28;20048;-74
2022/03/28 08:10:34;;;;;;;38.67;23.77;;;12.00;93.00;;;;;;5032923;28;20413;-75
2022/03/28 08:13:02;;;;;;;47.90;24.92;;;11.90;93.10;;;;;;5015314;28;20042;-75
2022/03/28 08:15:30;;;;;;;41.55;22.85;;;11.80;93.00;;;;;;5032865;28;20053;-73
2022/03/28 08:17:58;;;;;;;55.85;25.45;;;11.80;93.10;;;;;;5032845;28;20371;-75
2022/03/28 08:20:26;;;;;;;42.15;24.13;;;11.90;92.70;;;;;;5032521;28;20054;-75
2022/03/28 08:22:54;;;;;;;43.40;22.27;;;11.90;92.00;;;;;;5032632;28;20045;-75
2022/03/28 08:25:23;;;;;;;46.17;25.38;;;12.10;91.80;;;;;;5032292;28;20041;-74
2022/03/28 08:27:50;;;;;;;43.42;23.15;;;12.20;90.90;;;;;;5031644;28;20041;-74
2022/03/28 08:30:18;;;;;;;49.25;23.50;;;12.30;90.70;;;;;;5032427;28;20424;-74
2022/03/28 08:32:48;;;;;;;47.10;24.63;;;12.40;90.20;;;;;;5032161;28;20064;-74
2022/03/28 08:35:16;;;;;;;52.58;25.15;;;12.50;89.80;;;;;;5032403;28;20076;-77
2022/03/28 08:37:43;;;;;;;42.75;22.52;;;12.40;89.60;;;;;;5032221;28;20037;-74
2022/03/28 08:40:14;;;;;;;52.72;25.42;;;12.50;88.40;;;;;;5031989;28;20121;-76
2022/03/28 08:42:41;;;;;;;43.60;23.98;;;12.80;88.10;;;;;;5032090;28;20400;-72
2022/03/28 08:45:11;;;;;;;48.55;24.92;;;12.60;87.70;;;;;;5032036;28;20038;-74
2022/03/28 08:47:42;;;;;;;46.63;24.60;;;12.80;87.30;;;;;;5032581;28;20048;-75
2022/03/28 08:50:30;;;;;;;38.67;23.42;;;12.50;88.20;;;;;;5032059;28;20045;-75
2022/03/28 08:52:58;;;;;;;40.45;23.73;;;12.70;86.80;;;;;;5032032;28;20094;-75
2022/03/28 08:55:25;;;;;;;37.17;22.65;;;12.80;85.60;;;;;;5032061;28;20037;-73
2022/03/28 08:57:53;;;;;;;44.50;23.88;;;12.80;85.60;;;;;;5031771;28;20046;-74
2022/03/28 09:00:20;;;;;;;38.22;22.52;;;12.90;84.80;;;;;;5031820;28;20041;-75
2022/03/28 09:02:50;;;;;;;35.67;21.67;;;13.10;84.10;;;;;;5032361;28;20045;-75
2022/03/28 09:05:28;;;;;;;39.40;21.80;;;13.10;83.20;;;;;;5031616;28;20041;-74
2022/03/28 09:07:57;;;;;;;35.15;20.48;;;13.20;80.50;;;;;;5014170;28;20049;-74
2022/03/28 09:10:29;;;;;;;31.42;20.50;;;13.10;81.80;;;;;;5032002;28;20103;-75
2022/03/28 09:13:11;;;;;;;33.65;20.77;;;13.30;81.20;;;;;;5031781;28;20037;-74
2022/03/28 09:15:56;;;;;;;34.50;21.17;;;13.50;79.70;;;;;;5031711;28;20117;-74
2022/03/28 09:18:29;;;;;;;36.25;21.52;;;13.70;79.00;;;;;;5031731;28;20042;-76
2022/03/28 09:21:00;;;;;;;30.63;20.02;;;13.90;77.90;;;;;;5031334;28;20054;-73
2022/03/28 09:23:32;;;;;;;;;;;14.00;76.50;;;;;;5031586;28;20053;-75
2022/03/28 09:26:09;;;;;;;39.95;20.73;;;14.10;77.00;;;;;;5030930;28;19921;-75
2022/03/28 09:28:53;;;;;;;40.22;21.23;;;14.20;77.20;;;;;;5030534;28;20041;-74
2022/03/28 09:31:25;;;;;;;32.58;20.48;;;14.20;76.50;;;;;;5031206;28;20045;-75
2022/03/28 09:34:09;;;;;;;31.92;19.85;;;14.10;77.10;;;;;;4994288;28;20180;-75
2022/03/28 09:36:50;;;;;;;33.58;20.50;;;14.00;78.10;;;;;;5011695;28;20541;-75
2022/03/28 09:39:20;;;;;;;37.78;22.55;;;14.50;76.90;;;;;;5012552;28;20088;-75
2022/03/28 09:42:11;;;;;;;35.30;22.25;;;14.90;76.10;;;;;;5015824;28;20609;-74
2022/03/28 09:44:43;;;;;;;36.47;21.00;;;15.20;74.10;;;;;;5015661;28;20056;-75
2022/03/28 09:47:23;;;;;;;34.25;21.48;;;15.30;73.40;;;;;;5015953;28;20140;-76
2022/03/28 09:49:55;;;;;;;31.85;20.90;;;15.30;72.40;;;;;;5015505;28;20065;-74
2022/03/28 09:52:25;;;;;;;35.80;21.02;;;15.20;72.40;;;;;;5015380;28;20406;-76
2022/03/28 09:55:00;;;;;;;;;;;14.90;73.10;;;;;;5015763;28;20156;-74
2022/03/28 09:57:32;;;;;;;28.15;18.23;;;15.00;73.30;;;;;;5015581;28;19925;-74
2022/03/28 10:00:12;;;;;;;29.75;17.08;;;14.90;73.00;;;;;;5015133;28;20417;-74
2022/03/28 10:02:40;;;;;;;34.13;18.15;;;14.70;72.40;;;;;;5015510;28;20065;-75
2022/03/28 10:05:08;;;;;;;31.38;17.98;;;14.80;72.80;;;;;;5014944;28;20405;-74
2022/03/28 10:07:36;;;;;;;33.00;20.35;;;14.80;72.50;;;;;;5015475;28;20042;-74
2022/03/28 10:10:06;;;;;;;36.55;19.88;;;14.90;72.10;;;;;;5014815;28;20088;-75
2022/03/28 10:12:35;;;;;;;36.10;20.98;;;15.00;72.10;;;;;;5015212;28;20042;-76
2022/03/28 10:15:03;;;;;;;30.20;18.33;;;15.20;72.10;;;;;;5015042;28;20042;-74
2022/03/28 10:17:31;;;;;;;37.35;18.70;;;15.10;71.50;;;;;;5015477;28;20366;-74
2022/03/28 10:19:59;;;;;;;31.75;18.88;;;15.10;71.50;;;;;;5014922;28;20409;-75
2022/03/28 10:22:51;;;;;;;27.90;17.90;;;15.20;71.40;;;;;;5015061;28;20053;-76
2022/03/28 10:25:21;;;;;;;34.40;18.67;;;15.30;71.20;;;;;;5014636;28;20050;-75
2022/03/28 10:27:53;;;;;;;33.17;19.40;;;15.10;70.80;;;;;;5014964;28;20046;-75
2022/03/28 10:30:30;;;;;;;33.20;18.70;;;15.10;71.80;;;;;;5014845;28;20049;-75
2022/03/28 10:33:07;;;;;;;28.73;17.05;;;15.20;70.90;;;;;;5026281;28;20050;-74
2022/03/28 10:35:35;;;;;;;35.53;17.88;;;15.40;70.90;;;;;;5034270;28;20370;-75
2022/03/28 10:38:19;;;;;;;30.77;18.58;;;15.40;70.90;;;;;;5034294;28;20489;-76
2022/03/28 10:41:01;;;;;;;31.38;17.35;;;15.50;70.70;;;;;;5034537;28;20120;-76
2022/03/28 10:43:32;;;;;;;30.55;17.75;;;15.50;70.30;;;;;;5034412;28;20048;-76
2022/03/28 10:46:06;;;;;;;30.08;18.48;;;15.70;70.40;;;;;;5033956;28;20046;-74
2022/03/28 10:48:42;;;;;;;27.02;17.27;;;15.70;70.40;;;;;;5016737;28;20052;-74
2022/03/28 10:51:13;;;;;;;28.40;17.35;;;16.00;70.10;;;;;;5033417;28;20045;-76
2022/03/28 10:53:40;;;;;;;29.48;16.60;;;16.30;70.20;;;;;;5034138;28;20043;-75
2022/03/28 10:56:12;;;;;;;31.92;17.50;;;16.20;69.20;;;;;;5033977;28;20411;-75
2022/03/28 10:58:45;;;;;;;25.23;15.35;;;16.40;68.80;;;;;;5033879;28;20038;-73
2022/03/28 11:01:20;;;;;;;28.90;15.38;;;16.40;68.10;;;;;;5033739;28;20045;-75
2022/03/28 11:03:52;;;;;;;28.33;14.73;;;16.50;68.30;;;;;;5033873;28;20386;-75
2022/03/28 11:06:55;;;;;;;25.88;15.10;;;16.00;68.90;;;;;;5033765;28;20041;-75
2022/03/28 11:09:41;;;;;;;28.85;15.02;;;16.30;68.90;;;;;;4981543;28;20045;-74
2022/03/28 11:12:20;;;;;;;21.60;14.57;;;16.80;68.10;;;;;;5033960;28;20500;-74
2022/03/28 11:14:51;;;;;;;22.80;13.80;;;17.20;68.50;;;;;;5033939;28;20041;-74
2022/03/28 11:17:20;;;;;;;18.85;13.20;;;17.10;66.60;;;;;;5034040;28;20045;-76
2022/03/28 11:20:14;;;;;;;22.30;13.67;;;17.20;66.30;;;;;;5033866;28;20049;-74
2022/03/28 11:22:51;;;;;;;29.42;17.02;;;17.40;65.30;;;;;;5024268;28;20128;-74
2022/03/28 11:25:44;;;;;;;28.95;16.40;;;17.60;64.70;;;;;;5015708;28;20080;-74
2022/03/28 11:28:24;;;;;;;26.33;14.48;;;17.60;64.30;;;;;;5033439;28;20037;-74
2022/03/28 11:31:12;;;;;;;25.38;14.65;;;17.60;64.20;;;;;;5033429;28;20051;-75
2022/03/28 11:33:48;;;;;;;28.75;15.85;;;17.80;64.70;;;;;;5033204;28;20051;-74
2022/03/28 11:36:20;;;;;;;22.73;13.95;;;17.80;63.80;;;;;;5033404;28;20052;-76
2022/03/28 11:38:53;;;;;;;27.45;14.77;;;17.70;62.80;;;;;;5033272;28;20052;-74
2022/03/28 11:41:24;;;;;;;23.48;13.20;;;17.70;63.10;;;;;;5033251;28;20409;-75
2022/03/28 11:43:53;;;;;;;23.80;14.23;;;17.60;63.50;;;;;;5033367;28;20107;-75
2022/03/28 11:46:26;;;;;;;23.52;14.05;;;17.40;63.40;;;;;;5032981;28;20049;-74
2022/03/28 11:49:01;;;;;;;23.10;13.98;;;17.30;63.70;;;;;;5033197;28;20112;-75
2022/03/28 11:51:33;;;;;;;24.27;13.52;;;17.40;63.70;;;;;;5033189;28;20046;-74
2022/03/28 11:54:09;;;;;;;24.30;14.10;;;17.70;63.70;;;;;;5015822;28;20034;-74
2022/03/28 11:59:30;;;;;;;24.13;12.77;;;17.80;61.30;;;;;;5033006;28;20052;-74
2022/03/28 12:02:00;;;;;;;23.83;13.55;;;18.10;60.00;;;;;;5032391;28;20048;-75
2022/03/28 12:04:28;;;;;;;25.42;14.25;;;18.30;59.90;;;;;;5033069;28;20049;-75
2022/03/28 12:06:57;;;;;;;24.27;14.43;;;18.50;59.30;;;;;;5032763;28;20168;-75
2022/03/28 12:09:25;;;;;;;23.02;14.55;;;18.60;59.00;;;;;;4998767;28;20294;-75
2022/03/28 12:11:57;;;;;;;19.63;11.77;;;18.50;57.60;;;;;;5014936;28;20041;-75
2022/03/28 12:14:31;;;;;;;22.02;13.32;;;18.30;57.00;;;;;;5032501;28;20041;-72
2022/03/28 12:16:59;;;;;;;21.92;13.07;;;18.30;56.80;;;;;;5032536;28;20049;-72
2022/03/28 12:19:28;;;;;;;23.58;14.32;;;18.60;56.80;;;;;;5032482;28;20049;-75
2022/03/28 12:21:58;;;;;;;29.27;14.85;;;18.30;56.20;;;;;;5032401;28;20432;-75
2022/03/28 12:24:28;;;;;;;26.50;13.98;;;18.40;56.70;;;;;;5013168;28;20493;-75
2022/03/28 12:26:59;;;;;;;20.92;13.15;;;18.30;55.60;;;;;;4997247;28;20136;-74
2022/03/28 12:29:32;;;;;;;22.15;14.05;;;18.60;55.80;;;;;;5030495;28;20378;-73
2022/03/28 12:32:03;;;;;;;22.23;12.68;;;18.70;54.40;;;;;;5030773;28;20041;-75
2022/03/28 12:34:31;;;;;;;22.85;11.63;;;18.60;53.90;;;;;;5010972;28;20045;-73
2022/03/28 12:36:58;;;;;;;25.38;12.43;;;18.90;54.10;;;;;;5010763;28;20429;-76
2022/03/28 12:39:28;;;;;;;20.70;11.90;;;19.00;53.70;;;;;;5012175;28;20476;-72
2022/03/28 12:41:57;;;;;;;22.83;13.20;;;19.30;53.00;;;;;;5012198;28;20045;-74
2022/03/28 12:44:26;;;;;;;22.98;13.07;;;19.50;53.30;;;;;;5012359;28;20044;-73
2022/03/28 12:47:04;;;;;;;19.48;12.82;;;19.40;54.20;;;;;;5012404;28;20073;-75